Time;durP1;ratioP1;P1;durP2;ratioP2;P2;SDS_P1;SDS_P2;PMS_P1;PMS_P2;Temp;Humidity;BMP_temperature;BMP_pressure;BME280_temperature;BME280_humidity;BME280_pressure;Samples;Min_cycle;Max_cycle;Signal;HPM_P1;HPM_P2
2021/11/29 00:00:20;;;;;;;7.05;2.33;;;;;;;-2.32;76.93;99696.53;4964735;28;20055;-49
2021/11/29 00:02:49;;;;;;;11.25;3.72;;;;;;;-2.26;76.59;99695.09;4968126;28;20058;-50
2021/11/29 00:05:19;;;;;;;14.48;3.55;;;;;;;-2.24;76.73;99698.53;4972882;28;20090;-51
2021/11/29 00:07:46;;;;;;;11.95;4.25;;;;;;;-2.24;77.33;99694.34;4973545;28;20475;-49
2021/11/29 00:10:13;;;;;;;14.75;3.78;;;;;;;-2.25;76.85;99701.88;4962508;28;20525;-44
2021/11/29 00:12:39;;;;;;;11.85;4.22;;;;;;;-2.23;77.49;99701.13;4966670;28;20051;-44
2021/11/29 00:15:08;;;;;;;15.00;4.32;;;;;;;-2.21;76.34;99696.13;4966596;28;20082;-45
2021/11/29 00:17:34;;;;;;;12.48;4.22;;;;;;;-2.22;76.51;99696.94;4966546;28;20051;-45
2021/11/29 00:20:05;;;;;;;9.88;3.35;;;;;;;-2.24;77.39;99704.50;4968241;28;20047;-44
2021/11/29 00:22:32;;;;;;;12.40;3.63;;;;;;;-2.24;77.46;99714.63;4964671;28;20053;-44
2021/11/29 00:24:59;;;;;;;7.40;3.03;;;;;;;-2.25;77.34;99709.50;4965757;28;20051;-51
2021/11/29 00:27:25;;;;;;;14.45;4.88;;;;;;;-2.22;76.41;99724.84;4967451;28;20529;-46
2021/11/29 00:29:52;;;;;;;13.40;4.47;;;;;;;-2.20;76.05;99720.69;4965249;28;20110;-44
2021/11/29 00:32:18;;;;;;;12.57;4.03;;;;;;;-2.21;76.05;99714.78;4964552;28;20055;-49
2021/11/29 00:34:45;;;;;;;12.80;3.92;;;;;;;-2.21;76.82;99722.38;4968407;28;20054;-48
2021/11/29 00:37:12;;;;;;;17.20;4.15;;;;;;;-2.21;76.89;99719.84;4963773;28;20058;-49
2021/11/29 00:39:38;;;;;;;15.50;5.00;;;;;;;-2.21;75.93;99721.50;4963835;28;20058;-49
2021/11/29 00:42:05;;;;;;;20.63;6.63;;;;;;;-2.21;76.45;99713.91;4964004;28;20054;-48
2021/11/29 00:44:32;;;;;;;14.35;4.85;;;;;;;-2.25;76.73;99717.09;4980670;28;20050;-48
2021/11/29 00:46:58;;;;;;;9.68;3.33;;;;;;;-2.27;76.48;99716.19;4968732;28;20051;-51
2021/11/29 00:49:25;;;;;;;16.40;4.57;;;;;;;-2.28;76.10;99722.03;4966634;28;20061;-47
2021/11/29 00:51:52;;;;;;;16.17;5.65;;;;;;;-2.30;75.73;99724.50;4965172;28;20410;-47
2021/11/29 00:54:18;;;;;;;8.70;3.55;;;;;;;-2.34;76.67;99718.44;4967366;28;21014;-48
2021/11/29 00:56:45;;;;;;;8.57;2.58;;;;;;;-2.32;76.76;99721.91;4965540;28;20050;-45
2021/11/29 00:59:12;;;;;;;13.88;4.50;;;;;;;-2.33;76.45;99721.84;4968959;28;20058;-53
2021/11/29 01:01:39;;;;;;;18.00;5.55;;;;;;;-2.32;76.69;99721.91;4969393;28;20054;-47
2021/11/29 01:04:06;;;;;;;12.00;5.28;;;;;;;-2.30;77.28;99723.66;4964027;28;20078;-46
2021/11/29 01:06:33;;;;;;;20.40;6.80;;;;;;;-2.32;76.17;99719.38;4963145;28;20047;-46
2021/11/29 01:08:59;;;;;;;27.90;7.93;;;;;;;-2.33;76.55;99722.72;4966531;28;20054;-47
2021/11/29 01:11:26;;;;;;;16.65;5.70;;;;;;;-2.32;76.28;99716.81;4981642;28;21665;-55
2021/11/29 01:13:53;;;;;;;19.27;5.90;;;;;;;-2.32;76.85;99734.59;4963431;28;20105;-49
2021/11/29 01:16:21;;;;;;;19.15;5.68;;;;;;;-2.35;76.04;99737.00;4966575;28;20141;-46
2021/11/29 01:18:50;;;;;;;21.80;7.47;;;;;;;-2.35;76.35;99734.47;4969157;28;20047;-50
2021/11/29 01:21:19;;;;;;;21.10;6.38;;;;;;;-2.36;76.14;99730.19;4966693;28;20077;-46
2021/11/29 01:23:47;;;;;;;20.05;6.05;;;;;;;-2.38;76.70;99736.00;4966115;28;20097;-52
2021/11/29 01:26:15;;;;;;;18.30;5.82;;;;;;;-2.40;76.32;99738.44;4969548;28;20467;-46
2021/11/29 01:28:42;;;;;;;18.30;5.35;;;;;;;-2.43;76.01;99737.47;4968536;28;20566;-45
2021/11/29 01:31:09;;;;;;;19.00;6.03;;;;;;;-2.46;75.85;99744.13;4971098;28;20058;-47
2021/11/29 01:33:36;;;;;;;19.75;5.93;;;;;;;-2.48;75.79;99744.84;4967707;28;20055;-46
2021/11/29 01:36:04;;;;;;;22.00;5.82;;;;;;;-2.51;76.56;99743.06;4970842;28;20051;-48
2021/11/29 01:38:31;;;;;;;21.88;6.38;;;;;;;-2.55;76.09;99747.91;4966272;28;20130;-46
2021/11/29 01:40:58;;;;;;;19.05;6.05;;;;;;;-2.57;75.56;99750.38;4968483;28;20050;-49
2021/11/29 01:43:25;;;;;;;18.60;5.80;;;;;;;-2.58;76.60;99752.06;4969623;28;20454;-45
2021/11/29 01:45:54;;;;;;;18.10;6.03;;;;;;;-2.59;76.80;99759.59;4967568;28;20055;-50
2021/11/29 01:48:24;;;;;;;20.33;6.47;;;;;;;-2.61;75.46;99764.59;4969075;28;20449;-47
2021/11/29 01:50:55;;;;;;;11.30;4.15;;;;;;;-2.63;76.27;99766.16;4966318;28;20047;-48
2021/11/29 01:53:24;;;;;;;15.30;5.10;;;;;;;-2.64;76.10;99769.50;4967805;28;20058;-47
2021/11/29 01:55:52;;;;;;;23.35;7.20;;;;;;;-2.63;75.57;99765.31;4983556;28;20439;-45
2021/11/29 01:58:19;;;;;;;24.00;7.07;;;;;;;-2.65;76.38;99766.91;4970324;28;20051;-44
2021/11/29 02:00:49;;;;;;;19.05;7.00;;;;;;;-2.66;76.31;99776.19;4969030;28;20442;-45
2021/11/29 02:03:16;;;;;;;16.25;4.85;;;;;;;-2.68;75.56;99766.75;4968813;28;20161;-48
2021/11/29 02:05:44;;;;;;;19.50;5.30;;;;;;;-2.68;75.24;99772.72;4966555;28;20047;-50
2021/11/29 02:08:11;;;;;;;14.70;4.72;;;;;;;-2.70;75.34;99769.25;4965905;28;20054;-48
2021/11/29 02:10:38;;;;;;;18.90;6.25;;;;;;;-2.70;76.11;99776.84;4966959;28;20442;-52
2021/11/29 02:13:04;;;;;;;17.73;5.47;;;;;;;-2.71;75.52;99775.09;4965967;28;20064;-46
2021/11/29 02:15:31;;;;;;;26.08;5.97;;;;;;;-2.74;76.00;99773.28;4969207;28;20557;-48
2021/11/29 02:17:58;;;;;;;20.98;7.00;;;;;;;-2.75;75.51;99781.69;4966529;28;20062;-49
2021/11/29 02:20:30;;;;;;;16.73;5.30;;;;;;;-2.76;74.81;99774.91;4968498;28;20498;-48
2021/11/29 02:22:59;;;;;;;21.95;5.65;;;;;;;-2.78;74.80;99776.47;4966189;28;20683;-49
2021/11/29 02:25:26;;;;;;;25.63;7.38;;;;;;;-2.81;74.79;99775.47;4984115;28;20101;-42
2021/11/29 02:27:53;;;;;;;18.48;5.50;;;;;;;-2.85;75.58;99775.34;4969141;28;20059;-46
2021/11/29 02:30:40;;;;;;;17.20;6.07;;;;;;;-2.87;75.69;99771.00;4967980;28;20097;-48
2021/11/29 02:33:08;;;;;;;18.10;6.80;;;;;;;-2.92;74.83;99775.84;4967010;28;20062;-47
2021/11/29 02:35:35;;;;;;;21.45;6.60;;;;;;;-2.93;74.59;99776.66;4968337;28;20137;-43
2021/11/29 02:38:01;;;;;;;20.70;6.65;;;;;;;-2.95;74.94;99782.44;4969118;28;20053;-47
2021/11/29 02:40:30;;;;;;;20.55;6.13;;;;;;;-2.98;75.29;99780.59;4968276;28;20038;-45
2021/11/29 02:42:56;;;;;;;22.23;5.90;;;;;;;-3.02;74.58;99779.59;4967825;28;20096;-51
2021/11/29 02:45:23;;;;;;;20.42;5.70;;;;;;;-3.03;75.38;99779.53;4966892;28;20573;-46
2021/11/29 02:47:50;;;;;;;21.17;5.25;;;;;;;-3.07;74.58;99788.66;4966601;28;20097;-43
2021/11/29 02:50:16;;;;;;;19.13;5.15;;;;;;;-3.08;75.34;99788.59;4968692;28;20047;-46
2021/11/29 02:52:43;;;;;;;22.05;6.18;;;;;;;-3.12;75.35;99790.97;4966462;28;20047;-52
2021/11/29 02:55:11;;;;;;;21.77;7.60;;;;;;;-3.13;74.98;99784.16;4970194;28;20703;-46
2021/11/29 02:57:38;;;;;;;22.25;6.60;;;;;;;-3.16;74.56;99789.06;4967204;28;20050;-48
2021/11/29 03:00:07;;;;;;;18.50;5.78;;;;;;;-3.18;75.16;99785.59;4966310;28;20050;-46
2021/11/29 03:02:35;;;;;;;17.98;4.85;;;;;;;-3.20;75.74;99782.13;4964884;28;20054;-48
2021/11/29 03:05:06;;;;;;;18.75;4.80;;;;;;;-3.21;75.07;99785.44;4964183;28;20138;-48
2021/11/29 03:07:33;;;;;;;19.35;5.90;;;;;;;-3.21;74.94;99785.44;4967720;28;20051;-52
2021/11/29 03:10:01;;;;;;;16.38;4.65;;;;;;;-3.23;75.41;99789.56;4967081;28;20121;-49
2021/11/29 03:12:27;;;;;;;18.02;5.43;;;;;;;-3.24;74.82;99797.97;4965077;28;20058;-46
2021/11/29 03:14:54;;;;;;;23.08;7.47;;;;;;;-3.24;74.56;99790.38;4966573;28;20053;-44
2021/11/29 03:17:21;;;;;;;20.88;5.47;;;;;;;-3.26;75.56;99797.00;4965853;28;20687;-47
2021/11/29 03:19:47;;;;;;;19.92;5.63;;;;;;;-3.28;75.15;99793.56;4967187;28;20047;-50
2021/11/29 03:22:14;;;;;;;19.45;5.38;;;;;;;-3.30;75.30;99805.25;4966608;28;20047;-49
2021/11/29 03:24:45;;;;;;;17.02;4.65;;;;;;;-3.31;74.77;99808.59;4967277;28;20055;-47
2021/11/29 03:27:12;;;;;;;19.40;5.03;;;;;;;-3.34;75.59;99798.31;4968155;28;20483;-49
2021/11/29 03:29:39;;;;;;;18.20;5.47;;;;;;;-3.36;75.65;99804.16;4966863;28;20074;-44
2021/11/29 03:32:06;;;;;;;19.05;4.78;;;;;;;-3.37;75.57;99804.94;4966278;28;20042;-46
2021/11/29 03:34:38;;;;;;;17.75;4.80;;;;;;;-3.39;75.15;99806.53;4964869;28;20054;-47
2021/11/29 03:37:04;;;;;;;17.48;5.50;;;;;;;-3.41;75.43;99797.97;4964180;28;20479;-46
2021/11/29 03:39:31;;;;;;;20.83;5.93;;;;;;;-3.43;74.85;99799.59;4965899;28;20058;-51
2021/11/29 03:42:00;;;;;;;13.27;4.78;;;;;;;-3.46;75.52;99801.97;4968282;28;20758;-46
2021/11/29 03:44:27;;;;;;;16.58;5.13;;;;;;;-3.47;75.51;99802.75;4965963;28;20606;-49
2021/11/29 03:46:54;;;;;;;24.60;6.78;;;;;;;-3.49;74.90;99799.28;4964823;28;20050;-49
2021/11/29 03:49:22;;;;;;;19.52;5.85;;;;;;;-3.52;75.06;99814.31;4966311;28;20047;-52
2021/11/29 03:51:49;;;;;;;19.65;6.32;;;;;;;-3.55;74.97;99811.66;4965149;28;20109;-47
2021/11/29 03:54:16;;;;;;;17.13;5.95;;;;;;;-3.56;74.43;99817.47;4968178;28;20112;-48
2021/11/29 03:56:46;;;;;;;21.30;7.00;;;;;;;-3.58;74.87;99819.94;4966875;28;20055;-46
2021/11/29 03:59:12;;;;;;;15.73;4.95;;;;;;;-3.59;75.31;99822.41;4966894;28;20051;-45
2021/11/29 04:01:43;;;;;;;20.27;5.45;;;;;;;-3.61;74.91;99825.72;4967765;28;20319;-49
2021/11/29 04:04:10;;;;;;;13.32;5.28;;;;;;;-3.61;75.71;99830.78;4968518;28;20719;-48
2021/11/29 04:06:38;;;;;;;17.40;6.22;;;;;;;-3.61;75.91;99830.78;4968541;28;20531;-49
2021/11/29 04:09:05;;;;;;;20.33;5.95;;;;;;;-3.58;74.91;99834.28;4967500;28;20595;-45
2021/11/29 04:11:32;;;;;;;14.40;4.45;;;;;;;-3.58;75.36;99834.28;4968206;28;20049;-50
2021/11/29 04:13:58;;;;;;;19.00;5.80;;;;;;;-3.56;75.30;99832.66;4965853;28;20126;-44
2021/11/29 04:16:25;;;;;;;19.02;6.00;;;;;;;-3.55;74.67;99840.34;4965516;28;20063;-45
2021/11/29 04:18:52;;;;;;;17.35;5.68;;;;;;;-3.52;75.44;99839.63;4965996;28;20074;-45
2021/11/29 04:21:18;;;;;;;18.98;5.20;;;;;;;-3.51;75.84;99841.38;4966120;28;20051;-44
2021/11/29 04:23:47;;;;;;;22.30;6.00;;;;;;;-3.45;75.16;99843.38;4965924;28;20102;-52
2021/11/29 04:26:16;;;;;;;19.80;5.05;;;;;;;-3.43;75.39;99845.19;4967068;28;20061;-49
2021/11/29 04:28:44;;;;;;;23.30;6.22;;;;;;;-3.38;75.94;99853.00;4962817;28;20047;-50
2021/11/29 04:31:11;;;;;;;26.48;7.15;;;;;;;-3.33;74.91;99850.69;4964096;28;20400;-48
2021/11/29 04:33:38;;;;;;;16.58;4.55;;;;;;;-3.28;75.78;99856.88;4966300;28;20141;-47
2021/11/29 04:36:05;;;;;;;22.73;5.93;;;;;;;-3.26;75.74;99862.88;4966171;28;20114;-49
2021/11/29 04:38:32;;;;;;;17.88;6.80;;;;;;;-3.22;75.78;99869.84;4964224;28;20066;-45
2021/11/29 04:40:59;;;;;;;24.08;6.63;;;;;;;-3.18;75.66;99868.34;4964791;28;20682;-49
2021/11/29 04:43:26;;;;;;;18.95;5.80;;;;;;;-3.15;74.96;99876.94;4964706;28;20294;-44
2021/11/29 04:45:53;;;;;;;20.38;6.95;;;;;;;-3.12;74.84;99877.09;4958968;28;20051;-48
2021/11/29 04:48:20;;;;;;;19.10;5.32;;;;;;;-3.07;75.09;99876.47;4965386;28;20118;-48
2021/11/29 04:50:46;;;;;;;26.25;6.13;;;;;;;-3.06;74.41;99880.72;4965260;28;20047;-46
2021/11/29 04:53:13;;;;;;;23.67;6.40;;;;;;;-3.04;75.04;99866.50;4969912;28;20046;-43
2021/11/29 04:55:40;;;;;;;16.92;4.88;;;;;;;-3.03;75.24;99885.97;4969574;28;20098;-44
2021/11/29 04:58:06;;;;;;;18.38;5.85;;;;;;;-3.07;74.66;99873.94;4968368;28;20047;-48
2021/11/29 05:00:33;;;;;;;13.70;5.03;;;;;;;-3.10;75.23;99879.72;4971967;28;20096;-50
2021/11/29 05:03:00;;;;;;;20.08;5.80;;;;;;;-3.12;75.46;99878.75;4967181;28;20663;-47
2021/11/29 05:05:27;;;;;;;19.30;5.15;;;;;;;-3.14;74.89;99890.50;4969510;28;20058;-50
2021/11/29 05:08:13;;;;;;;19.02;5.88;;;;;;;-3.19;74.56;99890.25;4970163;28;20078;-44
2021/11/29 05:10:40;;;;;;;17.40;5.38;;;;;;;-3.24;75.59;99887.50;4964819;28;20102;-49
2021/11/29 05:13:07;;;;;;;19.70;5.10;;;;;;;-3.27;74.82;99883.94;4970760;28;20047;-44
2021/11/29 05:15:33;;;;;;;20.05;4.97;;;;;;;-3.32;74.77;99888.75;4967128;28;20513;-47
2021/11/29 05:18:00;;;;;;;20.55;4.72;;;;;;;-3.36;74.75;99887.75;4968404;28;20074;-43
2021/11/29 05:20:27;;;;;;;15.30;5.32;;;;;;;-3.40;75.15;99885.84;4969619;28;20094;-51
2021/11/29 05:22:54;;;;;;;21.13;5.25;;;;;;;-3.42;74.32;99889.97;4970490;28;20093;-49
2021/11/29 05:25:20;;;;;;;14.93;5.43;;;;;;;-3.45;75.39;99892.31;4969442;28;20490;-47
2021/11/29 05:27:47;;;;;;;14.32;4.22;;;;;;;-3.50;74.46;99894.66;4968985;28;20054;-47
2021/11/29 05:30:14;;;;;;;11.88;4.22;;;;;;;-3.56;75.36;99893.44;4967447;28;20050;-51
2021/11/29 05:32:40;;;;;;;15.88;4.75;;;;;;;-3.61;74.98;99900.81;4968704;28;20050;-48
2021/11/29 05:35:07;;;;;;;15.60;4.57;;;;;;;-3.64;74.69;99903.19;4968202;28;20117;-48
2021/11/29 05:37:34;;;;;;;12.95;3.65;;;;;;;-3.66;74.98;99902.22;4971186;28;20046;-47
2021/11/29 05:40:03;;;;;;;14.85;4.35;;;;;;;-3.68;74.72;99913.94;4967249;28;20106;-45
2021/11/29 05:42:41;;;;;;;12.88;4.38;;;;;;;-3.68;74.66;99911.41;4967807;28;20097;-43
2021/11/29 05:45:08;;;;;;;13.70;4.22;;;;;;;-3.70;75.03;99908.78;4966817;28;20055;-47
2021/11/29 05:47:35;;;;;;;21.15;5.45;;;;;;;-3.68;75.32;99912.25;4970191;28;20043;-46
2021/11/29 05:50:05;;;;;;;14.77;4.03;;;;;;;-3.65;75.26;99914.97;4977736;28;20102;-47
2021/11/29 05:52:32;;;;;;;13.27;4.13;;;;;;;-3.63;74.92;99926.06;4966386;28;20054;-47
2021/11/29 05:54:59;;;;;;;13.18;4.10;;;;;;;-3.59;75.89;99918.63;4967888;28;20043;-48
2021/11/29 05:57:25;;;;;;;9.15;4.03;;;;;;;-3.58;75.50;99910.22;4968013;28;20437;-48
2021/11/29 05:59:52;;;;;;;16.23;4.80;;;;;;;-3.56;75.67;99921.28;4969391;28;20042;-44
2021/11/29 06:02:19;;;;;;;13.25;4.53;;;;;;;-3.56;75.72;99918.75;4967832;28;20051;-47
2021/11/29 06:04:46;;;;;;;16.17;4.78;;;;;;;-3.56;74.90;99924.69;4970629;28;20054;-47
2021/11/29 06:07:12;;;;;;;14.90;3.97;;;;;;;-3.58;75.21;99933.00;4967570;28;20319;-45
2021/11/29 06:09:39;;;;;;;10.07;2.75;;;;;;;-3.61;75.58;99921.91;4968221;28;20054;-45
2021/11/29 06:12:06;;;;;;;13.77;4.22;;;;;;;-3.61;75.25;99919.38;4968539;28;20053;-44
2021/11/29 06:14:35;;;;;;;13.23;4.68;;;;;;;-3.61;74.77;99932.03;4975343;28;20062;-47
2021/11/29 06:17:02;;;;;;;13.18;4.07;;;;;;;-3.62;75.78;99920.19;4969575;28;20058;-43
2021/11/29 06:19:29;;;;;;;15.60;4.57;;;;;;;-3.62;74.97;99930.31;4968256;28;20188;-48
2021/11/29 06:21:56;;;;;;;10.40;3.78;;;;;;;-3.62;75.47;99931.97;4966955;28;20055;-44
2021/11/29 06:24:22;;;;;;;11.27;4.35;;;;;;;-3.64;75.82;99925.97;4968870;28;20063;-45
2021/11/29 06:26:49;;;;;;;14.85;4.07;;;;;;;-3.66;75.15;99928.41;4967684;28;20043;-45
2021/11/29 06:29:15;;;;;;;13.00;4.10;;;;;;;-3.66;75.79;99933.47;4968092;28;20055;-50
2021/11/29 06:31:42;;;;;;;11.65;3.30;;;;;;;-3.67;75.00;99934.28;4969230;28;20051;-46
2021/11/29 06:34:09;;;;;;;11.65;3.85;;;;;;;-3.69;75.57;99938.38;4969447;28;20455;-49
2021/11/29 06:36:36;;;;;;;12.75;4.18;;;;;;;-3.70;75.13;99941.69;4967015;28;20097;-45
2021/11/29 06:39:03;;;;;;;18.00;4.45;;;;;;;-3.72;75.03;99943.25;4970114;28;20050;-44
2021/11/29 06:41:30;;;;;;;10.60;3.78;;;;;;;-3.73;75.64;99941.53;4968060;28;20093;-52
2021/11/29 06:43:56;;;;;;;16.55;3.78;;;;;;;-3.72;75.83;99953.38;4969142;28;20050;-44
2021/11/29 06:46:23;;;;;;;12.48;3.05;;;;;;;-3.72;75.46;99958.44;4961266;28;20097;-45
2021/11/29 06:48:50;;;;;;;14.20;4.13;;;;;;;-3.72;76.41;99958.44;4964322;28;20137;-44
2021/11/29 06:51:17;;;;;;;15.38;5.10;;;;;;;-3.71;76.09;99950.09;4965189;28;20046;-47
2021/11/29 06:53:44;;;;;;;19.27;5.22;;;;;;;-3.69;75.60;99953.56;4966545;28;20483;-43
2021/11/29 06:56:10;;;;;;;13.77;4.45;;;;;;;-3.68;75.12;99955.28;4964240;28;20567;-47
2021/11/29 06:58:37;;;;;;;13.60;4.35;;;;;;;-3.65;75.29;99960.53;4966978;28;20101;-45
2021/11/29 07:01:04;;;;;;;12.55;3.63;;;;;;;-3.61;75.88;99957.38;4963286;28;20500;-50
2021/11/29 07:03:32;;;;;;;8.38;3.30;;;;;;;-3.59;75.16;99954.06;4966737;28;20081;-46
2021/11/29 07:05:59;;;;;;;9.75;3.03;;;;;;;-3.61;76.03;99959.91;4964927;28;20057;-50
2021/11/29 07:08:26;;;;;;;15.48;5.03;;;;;;;-3.61;75.01;99952.31;4966675;28;21291;-47
2021/11/29 07:10:53;;;;;;;15.13;5.45;;;;;;;-3.57;75.14;99970.19;4964345;28;20194;-50
2021/11/29 07:13:20;;;;;;;10.18;3.85;;;;;;;-3.57;75.31;99967.66;4967157;28;20611;-50
2021/11/29 07:15:47;;;;;;;16.60;4.93;;;;;;;-3.56;75.53;99970.28;4964174;28;20055;-43
2021/11/29 07:18:14;;;;;;;11.30;4.15;;;;;;;-3.56;76.08;99970.28;4966447;28;20459;-50
2021/11/29 07:20:42;;;;;;;15.63;4.93;;;;;;;-3.56;75.49;99979.53;4963622;28;20105;-46
2021/11/29 07:23:08;;;;;;;14.73;4.60;;;;;;;-3.55;75.93;99971.16;4968118;28;20383;-47
2021/11/29 07:25:35;;;;;;;15.75;4.90;;;;;;;-3.54;75.15;99975.44;4970905;28;20050;-49
2021/11/29 07:28:02;;;;;;;17.92;6.03;;;;;;;-3.52;75.05;99968.78;4962836;28;20424;-46
2021/11/29 07:30:30;;;;;;;18.92;5.57;;;;;;;-3.53;75.62;99977.16;4968817;28;20051;-46
2021/11/29 07:32:57;;;;;;;19.95;5.47;;;;;;;-3.53;75.51;99967.91;4967133;28;20051;-46
2021/11/29 07:35:26;;;;;;;17.73;5.10;;;;;;;-3.52;75.79;99976.38;4966621;28;20059;-49
2021/11/29 07:37:54;;;;;;;21.38;6.38;;;;;;;-3.50;75.29;99984.94;4966118;28;20042;-47
2021/11/29 07:40:31;;;;;;;21.50;6.72;;;;;;;-3.48;75.11;99988.41;4967079;28;20050;-48
2021/11/29 07:43:00;;;;;;;29.35;9.90;;;;;;;-3.47;75.72;99994.34;4963861;28;20066;-46
2021/11/29 07:45:27;;;;;;;36.72;12.07;;;;;;;-3.45;75.08;99996.16;4964313;28;20169;-48
2021/11/29 07:47:53;;;;;;;28.13;10.05;;;;;;;-3.45;74.84;99998.69;4959062;28;20043;-48
2021/11/29 07:50:21;;;;;;;16.50;5.93;;;;;;;-3.43;76.26;100007.25;4960713;28;20050;-51
2021/11/29 07:52:48;;;;;;;19.73;5.70;;;;;;;-3.41;75.83;100004.81;4980254;28;20042;-48
2021/11/29 07:55:21;;;;;;;31.10;9.57;;;;;;;-3.38;74.90;100010.91;4964068;28;21488;-46
2021/11/29 07:57:48;;;;;;;27.65;10.57;;;;;;;-3.37;75.06;100007.56;4965406;28;20137;-52
2021/11/29 08:00:20;;;;;;;20.80;7.68;;;;;;;-3.32;75.80;100006.97;4962730;28;20067;-50
2021/11/29 08:02:50;;;;;;;19.27;5.88;;;;;;;-3.27;74.96;100010.59;4959516;28;20062;-47
2021/11/29 08:05:20;;;;;;;20.88;6.70;;;;;;;-3.18;76.00;100013.59;4964854;28;20407;-48
2021/11/29 08:07:48;;;;;;;17.67;5.75;;;;;;;-3.06;75.58;100013.38;4963378;28;20054;-48
2021/11/29 08:10:16;;;;;;;21.33;6.25;;;;;;;-2.93;75.79;100014.91;4962922;28;20765;-48
2021/11/29 08:12:43;;;;;;;21.95;6.72;;;;;;;-2.80;74.85;100010.44;4965462;28;20058;-49
2021/11/29 08:15:10;;;;;;;21.20;6.95;;;;;;;-2.68;75.08;100015.25;4962101;28;20101;-48
2021/11/29 08:17:36;;;;;;;20.05;6.47;;;;;;;-2.52;74.47;100014.34;4964260;28;20097;-47
2021/11/29 08:20:05;;;;;;;18.83;6.50;;;;;;;-2.35;74.75;100018.63;4964784;28;20065;-47
2021/11/29 08:22:32;;;;;;;19.23;6.90;;;;;;;-2.18;74.03;100023.63;4962185;28;20047;-53
2021/11/29 08:24:59;;;;;;;16.13;6.20;;;;;;;-2.03;74.52;100020.94;4963466;28;20047;-47
2021/11/29 08:27:27;;;;;;;20.60;7.13;;;;;;;-1.84;74.11;100025.25;4967875;28;20559;-45
2021/11/29 08:29:53;;;;;;;20.30;6.63;;;;;;;-1.53;74.34;100019.88;4965490;28;20035;-48
2021/11/29 08:32:20;;;;;;;18.30;6.70;;;;;;;-1.17;73.51;100019.78;4969436;28;20051;-50
2021/11/29 08:34:47;;;;;;;12.80;4.55;;;;;;;-0.80;73.45;100025.59;4968908;28;20055;-45
2021/11/29 08:37:13;;;;;;;21.20;7.13;;;;;;;-0.47;72.35;100029.50;4967156;28;20699;-46
2021/11/29 08:39:40;;;;;;;20.60;6.80;;;;;;;-0.46;71.16;100026.16;4965085;28;20046;-48
2021/11/29 08:42:07;;;;;;;19.52;6.47;;;;;;;-0.60;70.95;100034.09;4967218;28;20098;-46
2021/11/29 08:44:34;;;;;;;18.73;6.80;;;;;;;-0.74;70.74;100030.06;4962080;28;20062;-54
2021/11/29 08:47:01;;;;;;;18.80;6.72;;;;;;;-0.92;70.54;100020.84;4959411;28;20085;-47
2021/11/29 08:49:28;;;;;;;25.52;6.60;;;;;;;-1.01;71.56;100025.53;4979806;28;20051;-49
2021/11/29 08:51:55;;;;;;;16.98;6.45;;;;;;;-1.10;71.35;100031.97;4969743;28;20054;-47
2021/11/29 08:54:28;;;;;;;13.00;4.25;;;;;;;-1.21;71.88;100025.53;4967895;28;20105;-50
2021/11/29 08:56:54;;;;;;;20.90;6.75;;;;;;;-1.23;71.80;100030.53;4965847;28;20046;-47
2021/11/29 08:59:22;;;;;;;10.80;4.80;;;;;;;-1.27;72.31;100032.84;4970579;28;20074;-48
2021/11/29 09:01:50;;;;;;;16.92;5.97;;;;;;;-1.26;72.52;100034.59;4968472;28;20051;-51
2021/11/29 09:04:18;;;;;;;15.38;6.05;;;;;;;-1.27;72.43;100043.91;4968593;28;20047;-47
2021/11/29 09:06:45;;;;;;;11.68;4.38;;;;;;;-1.27;72.48;100053.19;4968572;28;20061;-49
2021/11/29 09:09:12;;;;;;;19.08;7.20;;;;;;;-1.25;72.02;100051.59;4967636;28;20491;-49
2021/11/29 09:11:39;;;;;;;16.50;5.70;;;;;;;-1.27;72.38;100048.09;4966304;28;20109;-50
2021/11/29 09:14:06;;;;;;;16.67;6.25;;;;;;;-1.24;72.20;100063.50;4969996;28;20110;-51
2021/11/29 09:16:34;;;;;;;16.42;6.53;;;;;;;-1.23;72.33;100060.16;4970221;28;20047;-51
2021/11/29 09:19:01;;;;;;;17.42;7.05;;;;;;;-1.19;72.83;100047.66;4968487;28;20043;-46
2021/11/29 09:21:28;;;;;;;16.95;6.78;;;;;;;-1.18;72.57;100049.41;4967014;28;20055;-46
2021/11/29 09:23:59;;;;;;;20.33;7.03;;;;;;;-1.19;72.64;100052.75;4967188;28;20047;-46
2021/11/29 09:26:25;;;;;;;20.38;6.95;;;;;;;-1.18;72.79;100058.72;4967240;28;20518;-50
2021/11/29 09:28:52;;;;;;;24.15;9.20;;;;;;;-1.15;72.64;100060.50;4967256;28;20913;-50
2021/11/29 09:31:19;;;;;;;23.13;7.88;;;;;;;-1.12;72.39;100064.06;4965786;28;20097;-49
2021/11/29 09:33:46;;;;;;;20.38;7.88;;;;;;;-1.09;72.56;100069.28;4971451;28;20089;-49
2021/11/29 09:36:12;;;;;;;31.33;11.48;;;;;;;-1.04;72.25;100059.31;4969961;28;20046;-46
2021/11/29 09:38:39;;;;;;;31.70;12.70;;;;;;;-0.95;72.63;100061.41;4967441;28;20109;-53
2021/11/29 09:41:06;;;;;;;36.30;13.30;;;;;;;-0.79;72.66;100063.81;4966130;28;20480;-47
2021/11/29 09:43:35;;;;;;;34.22;13.85;;;;;;;-0.54;72.70;100069.94;4964014;28;20085;-49
2021/11/29 09:46:02;;;;;;;34.00;13.73;;;;;;;-0.28;72.79;100076.94;4968640;28;20224;-47
2021/11/29 09:48:28;;;;;;;35.35;13.38;;;;;;;-0.08;71.90;100075.22;4972788;28;20073;-48
2021/11/29 09:50:55;;;;;;;31.35;13.50;;;;;;;0.08;71.75;100083.50;4969766;28;20113;-47
2021/11/29 09:53:25;;;;;;;33.35;13.30;;;;;;;0.21;72.21;100078.06;4967155;28;20117;-47
2021/11/29 09:55:54;;;;;;;29.13;12.23;;;;;;;0.33;71.25;100082.81;4969185;28;20077;-47
2021/11/29 09:58:21;;;;;;;28.33;11.57;;;;;;;0.43;70.91;100089.13;4967010;28;20054;-49
2021/11/29 10:00:55;;;;;;;30.83;11.07;;;;;;;0.59;71.28;100094.81;4967737;28;20043;-49
2021/11/29 10:03:23;;;;;;;31.98;12.23;;;;;;;0.86;71.32;100100.13;4966272;28;20054;-50
2021/11/29 10:05:51;;;;;;;26.92;10.80;;;;;;;1.17;70.40;100100.38;4962446;28;20055;-47
2021/11/29 10:08:21;;;;;;;24.77;11.05;;;;;;;1.40;71.07;100093.53;4968092;28;20487;-54
2021/11/29 10:10:51;;;;;;;25.75;10.27;;;;;;;1.48;69.80;100098.91;4969748;28;20699;-50
2021/11/29 10:13:19;;;;;;;21.27;8.77;;;;;;;1.59;69.39;100103.53;4965073;28;20059;-45
2021/11/29 10:15:46;;;;;;;25.00;8.02;;;;;;;1.86;68.99;100105.28;4982416;28;20105;-48
2021/11/29 10:18:25;;;;;;;25.35;8.85;;;;;;;2.28;69.52;100112.63;4966518;28;20053;-53
2021/11/29 10:20:59;;;;;;;24.77;9.75;;;;;;;2.73;68.48;100107.19;4966285;28;20105;-49
2021/11/29 10:23:35;;;;;;;26.45;10.25;;;;;;;3.22;69.12;100111.13;4969929;28;20105;-49
2021/11/29 10:26:09;;;;;;;30.08;9.65;;;;;;;3.58;67.58;100107.00;4967460;28;20050;-50
2021/11/29 10:28:41;;;;;;;23.80;10.38;;;;;;;3.90;67.43;100107.81;4966588;28;20625;-46
2021/11/29 10:31:27;;;;;;;27.65;10.25;;;;;;;4.13;66.48;100104.94;4965524;28;20047;-46
2021/11/29 10:34:06;;;;;;;26.92;9.88;;;;;;;4.29;66.03;100099.34;4968415;28;20053;-50
2021/11/29 10:36:38;;;;;;;28.88;11.38;;;;;;;4.36;65.57;100101.22;4965892;28;20051;-49
2021/11/29 10:39:10;;;;;;;31.45;12.18;;;;;;;4.36;64.62;100101.22;4961179;28;20404;-48
2021/11/29 10:41:41;;;;;;;33.50;12.00;;;;;;;4.31;64.51;100100.28;4945964;28;20051;-54
2021/11/29 10:44:12;;;;;;;32.85;11.25;;;;;;;4.29;64.28;100094.22;4948161;28;20070;-51
2021/11/29 10:46:42;;;;;;;28.52;11.75;;;;;;;4.35;65.08;100099.50;4951851;28;20507;-49
2021/11/29 10:49:12;;;;;;;26.05;9.82;;;;;;;4.43;64.55;100096.25;4945774;28;20762;-50
2021/11/29 10:51:41;;;;;;;29.65;11.07;;;;;;;4.45;64.36;100104.84;4947639;28;20047;-53
2021/11/29 10:54:13;;;;;;;28.98;11.43;;;;;;;4.40;64.27;100103.88;4947121;28;20105;-49
2021/11/29 10:56:41;;;;;;;31.73;13.80;;;;;;;4.28;64.38;100107.88;4948444;28;20151;-49
2021/11/29 10:59:11;;;;;;;29.88;11.70;;;;;;;4.17;64.56;100104.19;4946863;28;20123;-54
2021/11/29 11:01:41;;;;;;;25.60;11.50;;;;;;;4.02;64.18;100099.56;4946025;28;20420;-53
2021/11/29 11:04:12;;;;;;;29.90;12.65;;;;;;;3.80;64.79;100110.13;4952859;28;20078;-51
2021/11/29 11:06:45;;;;;;;26.95;11.15;;;;;;;3.64;64.34;100100.31;4945204;28;20098;-50
2021/11/29 11:09:16;;;;;;;25.73;10.32;;;;;;;3.43;65.25;100093.78;4964012;28;20121;-53
2021/11/29 11:11:46;;;;;;;27.60;10.68;;;;;;;3.28;64.65;100095.09;4966119;28;20107;-49
2021/11/29 11:14:19;;;;;;;23.73;11.52;;;;;;;3.15;65.39;100086.22;4965012;28;20383;-51
2021/11/29 11:16:49;;;;;;;22.42;10.30;;;;;;;2.96;66.05;100084.81;4964602;28;20050;-53
2021/11/29 11:19:40;;;;;;;23.15;9.25;;;;;;;2.79;65.93;100074.97;4967843;28;20046;-48
2021/11/29 11:22:25;;;;;;;23.67;9.57;;;;;;;2.70;65.74;100084.91;4975594;28;20105;-49
2021/11/29 11:25:04;;;;;;;24.92;10.35;;;;;;;2.63;66.57;100078.75;4966354;28;20102;-48